Terminal Aerodrome Forecast
Issued by NWS Wilmington, OH

Home | Current Version | Previous Version | Text Only | Print | Product List | Glossary On
Versions: 1 2 3 4 5 6 7 8 9 10 11 12 13 14 15 16 17
648
FTUS41 KILN 130335 AAA
TAFILN
TAF AMD
KILN 130335Z 1304/1324 32014G22KT P6SM -SHSN BKN035
     FM130800 34012G22KT P6SM -SHSN BKN025
     FM131100 34010KT P6SM VCSH BKN020
     FM131700 32012KT P6SM VCSH BKN020=

USA.gov is the U.S. government's official web portal to all federal, state and local government web resources and services.